sensor_id;sensor_type;location;lat;lon;timestamp;temperature;humidity
56542;DHT22;42438;53.174;6.730;2023-02-21T00:02:12;9.40;99.90
56542;DHT22;42438;53.174;6.730;2023-02-21T00:05:02;9.50;99.90
56542;DHT22;42438;53.174;6.730;2023-02-21T00:07:51;9.40;99.90
56542;DHT22;42438;53.174;6.730;2023-02-21T00:10:40;9.50;99.90
56542;DHT22;42438;53.174;6.730;2023-02-21T00:13:29;9.40;99.90
56542;DHT22;42438;53.174;6.730;2023-02-21T00:16:19;9.50;99.90
56542;DHT22;42438;53.174;6.730;2023-02-21T00:19:08;9.50;99.90
56542;DHT22;42438;53.174;6.730;2023-02-21T00:21:57;9.60;99.90
56542;DHT22;42438;53.174;6.730;2023-02-21T00:24:47;9.40;99.90
56542;DHT22;42438;53.174;6.730;2023-02-21T00:27:36;9.40;99.90
56542;DHT22;42438;53.174;6.730;2023-02-21T00:30:25;9.50;99.90
56542;DHT22;42438;53.174;6.730;2023-02-21T00:33:14;9.50;99.90
56542;DHT22;42438;53.174;6.730;2023-02-21T00:36:04;9.40;99.90
56542;DHT22;42438;53.174;6.730;2023-02-21T00:38:53;9.60;99.90
56542;DHT22;42438;53.174;6.730;2023-02-21T00:41:42;9.50;99.90
56542;DHT22;42438;53.174;6.730;2023-02-21T00:44:32;9.40;99.90
56542;DHT22;42438;53.174;6.730;2023-02-21T00:47:21;9.50;99.90
56542;DHT22;42438;53.174;6.730;2023-02-21T00:50:12;9.50;99.90
56542;DHT22;42438;53.174;6.730;2023-02-21T00:53:01;9.50;99.90
56542;DHT22;42438;53.174;6.730;2023-02-21T00:55:51;9.50;99.90
56542;DHT22;42438;53.174;6.730;2023-02-21T00:58:40;9.50;99.90
56542;DHT22;42438;53.174;6.730;2023-02-21T01:01:30;9.40;99.90
56542;DHT22;42438;53.174;6.730;2023-02-21T01:04:19;9.50;99.90
56542;DHT22;42438;53.174;6.730;2023-02-21T01:07:08;9.50;99.90
56542;DHT22;42438;53.174;6.730;2023-02-21T01:09:58;9.50;99.90
56542;DHT22;42438;53.174;6.730;2023-02-21T01:12:47;9.60;99.90
56542;DHT22;42438;53.174;6.730;2023-02-21T01:15:36;9.40;99.90
56542;DHT22;42438;53.174;6.730;2023-02-21T01:18:26;9.40;99.90
56542;DHT22;42438;53.174;6.730;2023-02-21T01:21:17;9.40;99.90
56542;DHT22;42438;53.174;6.730;2023-02-21T01:24:09;9.50;99.90
56542;DHT22;42438;53.174;6.730;2023-02-21T01:27:00;9.40;99.90
56542;DHT22;42438;53.174;6.730;2023-02-21T01:29:49;9.30;99.90
56542;DHT22;42438;53.174;6.730;2023-02-21T01:32:38;9.40;99.90
56542;DHT22;42438;53.174;6.730;2023-02-21T01:35:28;9.40;99.90
56542;DHT22;42438;53.174;6.730;2023-02-21T01:38:17;9.40;99.90
56542;DHT22;42438;53.174;6.730;2023-02-21T01:41:07;9.50;99.90
56542;DHT22;42438;53.174;6.730;2023-02-21T01:44:02;9.40;99.90
56542;DHT22;42438;53.174;6.730;2023-02-21T01:46:51;9.40;99.90
56542;DHT22;42438;53.174;6.730;2023-02-21T01:49:41;9.40;99.90
56542;DHT22;42438;53.174;6.730;2023-02-21T01:52:30;9.40;99.90
56542;DHT22;42438;53.174;6.730;2023-02-21T01:55:19;9.20;99.90
56542;DHT22;42438;53.174;6.730;2023-02-21T01:58:09;9.40;99.90
56542;DHT22;42438;53.174;6.730;2023-02-21T02:00:59;9.30;99.90
56542;DHT22;42438;53.174;6.730;2023-02-21T02:03:48;9.40;99.90
56542;DHT22;42438;53.174;6.730;2023-02-21T02:06:37;9.40;99.90
56542;DHT22;42438;53.174;6.730;2023-02-21T02:09:27;9.30;99.90
56542;DHT22;42438;53.174;6.730;2023-02-21T02:21:07;9.30;99.90
56542;DHT22;42438;53.174;6.730;2023-02-21T02:23:55;9.30;99.90
56542;DHT22;42438;53.174;6.730;2023-02-21T02:37:47;9.20;99.90
56542;DHT22;42438;53.174;6.730;2023-02-21T02:40:35;9.50;99.90
56542;DHT22;42438;53.174;6.730;2023-02-21T02:43:30;9.30;99.90
56542;DHT22;42438;53.174;6.730;2023-02-21T02:46:07;9.40;99.90
56542;DHT22;42438;53.174;6.730;2023-02-21T02:48:45;9.30;99.90
56542;DHT22;42438;53.174;6.730;2023-02-21T02:51:17;9.30;99.90
56542;DHT22;42438;53.174;6.730;2023-02-21T02:53:47;9.30;99.90
56542;DHT22;42438;53.174;6.730;2023-02-21T02:56:18;9.40;99.90
56542;DHT22;42438;53.174;6.730;2023-02-21T02:58:55;9.40;99.90
56542;DHT22;42438;53.174;6.730;2023-02-21T03:04:38;9.40;99.90
56542;DHT22;42438;53.174;6.730;2023-02-21T03:18:13;9.30;99.90
56542;DHT22;42438;53.174;6.730;2023-02-21T03:20:51;9.30;99.90
56542;DHT22;42438;53.174;6.730;2023-02-21T03:23:26;9.30;99.90
56542;DHT22;42438;53.174;6.730;2023-02-21T03:26:00;9.30;99.90
56542;DHT22;42438;53.174;6.730;2023-02-21T03:28:33;9.30;99.90
56542;DHT22;42438;53.174;6.730;2023-02-21T03:31:06;9.40;99.90
56542;DHT22;42438;53.174;6.730;2023-02-21T03:33:38;9.30;99.90
56542;DHT22;42438;53.174;6.730;2023-02-21T03:36:11;9.20;99.90
56542;DHT22;42438;53.174;6.730;2023-02-21T03:38:41;9.40;99.90
56542;DHT22;42438;53.174;6.730;2023-02-21T03:41:14;9.30;99.90
56542;DHT22;42438;53.174;6.730;2023-02-21T03:43:44;9.40;99.90
56542;DHT22;42438;53.174;6.730;2023-02-21T03:46:15;9.30;99.90
56542;DHT22;42438;53.174;6.730;2023-02-21T03:48:46;9.20;99.90
56542;DHT22;42438;53.174;6.730;2023-02-21T03:51:17;9.40;99.90
56542;DHT22;42438;53.174;6.730;2023-02-21T03:53:47;9.20;99.90
56542;DHT22;42438;53.174;6.730;2023-02-21T03:56:18;9.40;99.90
56542;DHT22;42438;53.174;6.730;2023-02-21T03:58:49;9.20;99.90
56542;DHT22;42438;53.174;6.730;2023-02-21T04:01:19;9.20;99.90
56542;DHT22;42438;53.174;6.730;2023-02-21T04:03:50;9.20;99.90
56542;DHT22;42438;53.174;6.730;2023-02-21T04:06:21;9.10;99.90
56542;DHT22;42438;53.174;6.730;2023-02-21T04:08:51;9.10;99.90
56542;DHT22;42438;53.174;6.730;2023-02-21T04:11:22;9.10;99.90
56542;DHT22;42438;53.174;6.730;2023-02-21T04:13:53;9.20;99.90
56542;DHT22;42438;53.174;6.730;2023-02-21T04:16:24;9.20;99.90
56542;DHT22;42438;53.174;6.730;2023-02-21T04:18:54;9.10;99.90
56542;DHT22;42438;53.174;6.730;2023-02-21T04:21:25;9.20;99.90
56542;DHT22;42438;53.174;6.730;2023-02-21T04:23:55;9.10;99.90
56542;DHT22;42438;53.174;6.730;2023-02-21T04:26:26;9.10;99.90
56542;DHT22;42438;53.174;6.730;2023-02-21T04:28:59;9.30;99.90
56542;DHT22;42438;53.174;6.730;2023-02-21T04:31:30;9.10;99.90
56542;DHT22;42438;53.174;6.730;2023-02-21T04:34:01;9.30;99.90
56542;DHT22;42438;53.174;6.730;2023-02-21T04:36:32;9.10;99.90
56542;DHT22;42438;53.174;6.730;2023-02-21T04:39:04;9.10;99.90
56542;DHT22;42438;53.174;6.730;2023-02-21T04:41:34;9.10;99.90
56542;DHT22;42438;53.174;6.730;2023-02-21T04:44:05;9.20;99.90
56542;DHT22;42438;53.174;6.730;2023-02-21T04:46:36;9.10;99.90
56542;DHT22;42438;53.174;6.730;2023-02-21T04:49:06;9.10;99.90
56542;DHT22;42438;53.174;6.730;2023-02-21T04:51:37;9.20;99.90
56542;DHT22;42438;53.174;6.730;2023-02-21T04:54:08;9.10;99.90
56542;DHT22;42438;53.174;6.730;2023-02-21T04:56:39;9.20;99.90
56542;DHT22;42438;53.174;6.730;2023-02-21T04:59:09;9.10;99.90
56542;DHT22;42438;53.174;6.730;2023-02-21T05:01:40;9.20;99.90
56542;DHT22;42438;53.174;6.730;2023-02-21T05:04:11;9.10;99.90
56542;DHT22;42438;53.174;6.730;2023-02-21T05:06:42;9.20;99.90
56542;DHT22;42438;53.174;6.730;2023-02-21T05:09:12;9.10;99.90
56542;DHT22;42438;53.174;6.730;2023-02-21T05:11:43;9.10;99.90
56542;DHT22;42438;53.174;6.730;2023-02-21T05:14:13;9.30;99.90
56542;DHT22;42438;53.174;6.730;2023-02-21T05:16:44;9.20;99.90
56542;DHT22;42438;53.174;6.730;2023-02-21T05:19:19;9.10;99.90
56542;DHT22;42438;53.174;6.730;2023-02-21T05:21:58;9.10;99.90
56542;DHT22;42438;53.174;6.730;2023-02-21T05:24:29;8.90;99.90
56542;DHT22;42438;53.174;6.730;2023-02-21T05:27:00;9.00;99.90
56542;DHT22;42438;53.174;6.730;2023-02-21T05:29:31;8.90;99.90
56542;DHT22;42438;53.174;6.730;2023-02-21T05:32:02;8.80;99.90
56542;DHT22;42438;53.174;6.730;2023-02-21T05:34:33;9.10;99.90
56542;DHT22;42438;53.174;6.730;2023-02-21T05:37:03;9.20;99.90
56542;DHT22;42438;53.174;6.730;2023-02-21T05:39:34;8.80;99.90
56542;DHT22;42438;53.174;6.730;2023-02-21T05:42:05;9.00;99.90
56542;DHT22;42438;53.174;6.730;2023-02-21T05:44:35;9.10;99.90
56542;DHT22;42438;53.174;6.730;2023-02-21T05:47:06;8.90;99.90
56542;DHT22;42438;53.174;6.730;2023-02-21T05:49:37;9.10;99.90
56542;DHT22;42438;53.174;6.730;2023-02-21T05:52:11;8.90;99.90
56542;DHT22;42438;53.174;6.730;2023-02-21T05:54:42;9.00;99.90
56542;DHT22;42438;53.174;6.730;2023-02-21T05:57:13;9.00;99.90
56542;DHT22;42438;53.174;6.730;2023-02-21T05:59:44;9.10;99.90
56542;DHT22;42438;53.174;6.730;2023-02-21T06:02:17;9.00;99.90
56542;DHT22;42438;53.174;6.730;2023-02-21T06:04:48;9.00;99.90
56542;DHT22;42438;53.174;6.730;2023-02-21T06:07:18;9.00;99.90
56542;DHT22;42438;53.174;6.730;2023-02-21T06:09:49;9.10;99.90
56542;DHT22;42438;53.174;6.730;2023-02-21T06:12:20;8.80;99.90
56542;DHT22;42438;53.174;6.730;2023-02-21T06:14:50;9.10;99.90
56542;DHT22;42438;53.174;6.730;2023-02-21T06:17:21;9.00;99.90
56542;DHT22;42438;53.174;6.730;2023-02-21T06:19:55;8.90;99.90
56542;DHT22;42438;53.174;6.730;2023-02-21T06:22:25;9.00;99.90
56542;DHT22;42438;53.174;6.730;2023-02-21T06:24:56;8.90;99.90
56542;DHT22;42438;53.174;6.730;2023-02-21T06:27:26;9.00;99.90
56542;DHT22;42438;53.174;6.730;2023-02-21T06:29:57;8.70;99.90
56542;DHT22;42438;53.174;6.730;2023-02-21T06:32:28;9.00;99.90
56542;DHT22;42438;53.174;6.730;2023-02-21T06:34:58;8.80;99.90
56542;DHT22;42438;53.174;6.730;2023-02-21T06:37:29;8.90;99.90
56542;DHT22;42438;53.174;6.730;2023-02-21T06:40:00;8.80;99.90
56542;DHT22;42438;53.174;6.730;2023-02-21T06:42:30;8.80;99.90
56542;DHT22;42438;53.174;6.730;2023-02-21T06:45:01;8.80;99.90
56542;DHT22;42438;53.174;6.730;2023-02-21T06:47:32;8.80;99.90
56542;DHT22;42438;53.174;6.730;2023-02-21T06:50:03;9.00;99.90
56542;DHT22;42438;53.174;6.730;2023-02-21T06:52:34;8.70;99.90
56542;DHT22;42438;53.174;6.730;2023-02-21T06:55:05;8.80;99.90
56542;DHT22;42438;53.174;6.730;2023-02-21T06:57:36;8.80;99.90
56542;DHT22;42438;53.174;6.730;2023-02-21T07:00:08;8.70;99.90
56542;DHT22;42438;53.174;6.730;2023-02-21T07:02:38;8.70;99.90
56542;DHT22;42438;53.174;6.730;2023-02-21T07:05:10;8.90;99.90
56542;DHT22;42438;53.174;6.730;2023-02-21T07:07:41;8.90;99.90
56542;DHT22;42438;53.174;6.730;2023-02-21T07:10:12;8.70;99.90
56542;DHT22;42438;53.174;6.730;2023-02-21T07:12:43;8.90;99.90
56542;DHT22;42438;53.174;6.730;2023-02-21T07:15:13;8.90;99.90
56542;DHT22;42438;53.174;6.730;2023-02-21T07:17:44;8.90;99.90
56542;DHT22;42438;53.174;6.730;2023-02-21T07:20:15;8.90;99.90
56542;DHT22;42438;53.174;6.730;2023-02-21T07:22:45;8.70;99.90
56542;DHT22;42438;53.174;6.730;2023-02-21T07:25:19;8.90;99.90
56542;DHT22;42438;53.174;6.730;2023-02-21T07:27:50;9.00;99.90
56542;DHT22;42438;53.174;6.730;2023-02-21T07:30:22;8.80;99.90
56542;DHT22;42438;53.174;6.730;2023-02-21T07:32:52;8.70;99.90
56542;DHT22;42438;53.174;6.730;2023-02-21T07:35:23;8.80;99.90
56542;DHT22;42438;53.174;6.730;2023-02-21T07:37:54;8.80;99.90
56542;DHT22;42438;53.174;6.730;2023-02-21T07:40:24;8.90;99.90
56542;DHT22;42438;53.174;6.730;2023-02-21T07:42:55;9.00;99.90
56542;DHT22;42438;53.174;6.730;2023-02-21T07:45:26;8.80;99.90
56542;DHT22;42438;53.174;6.730;2023-02-21T07:47:56;9.10;99.90
56542;DHT22;42438;53.174;6.730;2023-02-21T07:50:27;9.00;99.90
56542;DHT22;42438;53.174;6.730;2023-02-21T07:52:59;8.90;99.90
56542;DHT22;42438;53.174;6.730;2023-02-21T07:55:29;9.10;99.90
56542;DHT22;42438;53.174;6.730;2023-02-21T07:58:00;9.10;99.90
56542;DHT22;42438;53.174;6.730;2023-02-21T08:00:31;8.90;99.90
56542;DHT22;42438;53.174;6.730;2023-02-21T08:03:02;9.20;99.90
56542;DHT22;42438;53.174;6.730;2023-02-21T08:05:32;9.20;99.90
56542;DHT22;42438;53.174;6.730;2023-02-21T08:08:06;9.30;99.90
56542;DHT22;42438;53.174;6.730;2023-02-21T08:10:38;9.30;99.90
56542;DHT22;42438;53.174;6.730;2023-02-21T08:13:09;9.40;99.90
56542;DHT22;42438;53.174;6.730;2023-02-21T08:15:39;9.40;99.90
56542;DHT22;42438;53.174;6.730;2023-02-21T08:18:18;9.20;99.90
56542;DHT22;42438;53.174;6.730;2023-02-21T08:20:54;9.20;99.90
56542;DHT22;42438;53.174;6.730;2023-02-21T08:23:26;9.30;99.90
56542;DHT22;42438;53.174;6.730;2023-02-21T08:25:56;9.50;99.90
56542;DHT22;42438;53.174;6.730;2023-02-21T08:28:27;9.40;99.90
56542;DHT22;42438;53.174;6.730;2023-02-21T08:30:58;9.50;99.90
56542;DHT22;42438;53.174;6.730;2023-02-21T08:33:29;9.40;99.90
56542;DHT22;42438;53.174;6.730;2023-02-21T08:35:59;9.60;99.90
56542;DHT22;42438;53.174;6.730;2023-02-21T08:38:30;9.60;99.90
56542;DHT22;42438;53.174;6.730;2023-02-21T08:41:01;9.50;99.90
56542;DHT22;42438;53.174;6.730;2023-02-21T08:43:32;9.80;99.90
56542;DHT22;42438;53.174;6.730;2023-02-21T08:46:03;9.80;99.90
56542;DHT22;42438;53.174;6.730;2023-02-21T08:48:34;9.70;99.90
56542;DHT22;42438;53.174;6.730;2023-02-21T08:51:05;9.70;99.90
56542;DHT22;42438;53.174;6.730;2023-02-21T08:53:35;9.70;99.90
56542;DHT22;42438;53.174;6.730;2023-02-21T08:56:06;9.60;99.90
56542;DHT22;42438;53.174;6.730;2023-02-21T08:58:37;9.80;99.90
56542;DHT22;42438;53.174;6.730;2023-02-21T09:01:07;9.90;99.90
56542;DHT22;42438;53.174;6.730;2023-02-21T09:03:38;9.90;99.90
56542;DHT22;42438;53.174;6.730;2023-02-21T09:06:09;10.00;99.90
56542;DHT22;42438;53.174;6.730;2023-02-21T09:08:40;10.00;99.90
56542;DHT22;42438;53.174;6.730;2023-02-21T09:11:10;10.20;99.90
56542;DHT22;42438;53.174;6.730;2023-02-21T09:13:41;10.10;99.90
56542;DHT22;42438;53.174;6.730;2023-02-21T09:16:12;9.90;99.90
56542;DHT22;42438;53.174;6.730;2023-02-21T09:18:43;10.10;99.90
56542;DHT22;42438;53.174;6.730;2023-02-21T09:21:13;10.10;99.90
56542;DHT22;42438;53.174;6.730;2023-02-21T09:23:44;10.00;99.90
56542;DHT22;42438;53.174;6.730;2023-02-21T09:26:15;10.10;99.90
56542;DHT22;42438;53.174;6.730;2023-02-21T09:28:46;10.10;99.90
56542;DHT22;42438;53.174;6.730;2023-02-21T09:31:18;10.10;99.90
56542;DHT22;42438;53.174;6.730;2023-02-21T09:33:49;10.10;99.90
56542;DHT22;42438;53.174;6.730;2023-02-21T09:36:19;10.20;99.90
56542;DHT22;42438;53.174;6.730;2023-02-21T09:38:53;10.40;99.90
56542;DHT22;42438;53.174;6.730;2023-02-21T09:41:24;10.40;99.90
56542;DHT22;42438;53.174;6.730;2023-02-21T09:43:54;10.40;99.90
56542;DHT22;42438;53.174;6.730;2023-02-21T09:46:48;10.50;99.90
56542;DHT22;42438;53.174;6.730;2023-02-21T09:49:30;10.30;99.90
56542;DHT22;42438;53.174;6.730;2023-02-21T09:52:02;10.40;99.90
56542;DHT22;42438;53.174;6.730;2023-02-21T09:54:39;10.70;99.90
56542;DHT22;42438;53.174;6.730;2023-02-21T09:57:14;10.60;99.90
56542;DHT22;42438;53.174;6.730;2023-02-21T09:59:48;10.70;99.90
56542;DHT22;42438;53.174;6.730;2023-02-21T10:02:46;10.60;99.90
56542;DHT22;42438;53.174;6.730;2023-02-21T10:10:59;10.60;99.90
56542;DHT22;42438;53.174;6.730;2023-02-21T10:13:38;10.50;99.90
56542;DHT22;42438;53.174;6.730;2023-02-21T10:16:24;10.60;99.90
56542;DHT22;42438;53.174;6.730;2023-02-21T10:19:15;10.60;99.90
56542;DHT22;42438;53.174;6.730;2023-02-21T10:21:48;10.70;99.90
56542;DHT22;42438;53.174;6.730;2023-02-21T10:24:22;10.70;99.90
56542;DHT22;42438;53.174;6.730;2023-02-21T10:27:09;10.80;99.90
56542;DHT22;42438;53.174;6.730;2023-02-21T10:29:51;10.80;99.90
56542;DHT22;42438;53.174;6.730;2023-02-21T10:32:25;10.70;99.90
56542;DHT22;42438;53.174;6.730;2023-02-21T10:34:56;10.80;99.90
56542;DHT22;42438;53.174;6.730;2023-02-21T10:37:51;10.70;99.90
56542;DHT22;42438;53.174;6.730;2023-02-21T10:40:27;10.90;99.90
56542;DHT22;42438;53.174;6.730;2023-02-21T10:48:24;10.70;99.90
56542;DHT22;42438;53.174;6.730;2023-02-21T10:53:44;10.80;99.90
56542;DHT22;42438;53.174;6.730;2023-02-21T10:58:58;10.70;99.90
56542;DHT22;42438;53.174;6.730;2023-02-21T11:01:50;10.70;99.90
56542;DHT22;42438;53.174;6.730;2023-02-21T11:04:28;10.80;99.90
56542;DHT22;42438;53.174;6.730;2023-02-21T11:07:05;10.80;99.90
56542;DHT22;42438;53.174;6.730;2023-02-21T11:09:41;11.00;99.90
56542;DHT22;42438;53.174;6.730;2023-02-21T11:17:29;10.80;99.90
56542;DHT22;42438;53.174;6.730;2023-02-21T11:22:47;11.00;99.90
56542;DHT22;42438;53.174;6.730;2023-02-21T11:25:28;10.90;99.90
56542;DHT22;42438;53.174;6.730;2023-02-21T11:33:41;11.00;99.90
56542;DHT22;42438;53.174;6.730;2023-02-21T11:36:17;11.10;99.90
56542;DHT22;42438;53.174;6.730;2023-02-21T11:39:06;11.20;99.90
56542;DHT22;42438;53.174;6.730;2023-02-21T11:41:49;11.10;99.90
56542;DHT22;42438;53.174;6.730;2023-02-21T11:44:28;11.00;99.90
56542;DHT22;42438;53.174;6.730;2023-02-21T11:52:44;11.10;99.90
56542;DHT22;42438;53.174;6.730;2023-02-21T11:55:18;11.20;99.90
56542;DHT22;42438;53.174;6.730;2023-02-21T12:04:00;11.20;99.90
56542;DHT22;42438;53.174;6.730;2023-02-21T12:14:59;11.20;99.90
56542;DHT22;42438;53.174;6.730;2023-02-21T12:39:35;11.10;99.90
56542;DHT22;42438;53.174;6.730;2023-02-21T12:50:47;11.10;99.90
56542;DHT22;42438;53.174;6.730;2023-02-21T12:56:47;11.20;99.90
56542;DHT22;42438;53.174;6.730;2023-02-21T13:02:18;11.10;99.90
56542;DHT22;42438;53.174;6.730;2023-02-21T13:05:09;11.10;99.90
56542;DHT22;42438;53.174;6.730;2023-02-21T13:07:48;11.10;99.90
56542;DHT22;42438;53.174;6.730;2023-02-21T13:10:29;11.20;99.90
56542;DHT22;42438;53.174;6.730;2023-02-21T13:13:10;11.20;99.90
56542;DHT22;42438;53.174;6.730;2023-02-21T13:15:42;11.70;99.90
56542;DHT22;42438;53.174;6.730;2023-02-21T13:18:20;11.10;99.90
56542;DHT22;42438;53.174;6.730;2023-02-21T13:20:56;11.20;99.90
56542;DHT22;42438;53.174;6.730;2023-02-21T13:29:41;11.20;99.90
56542;DHT22;42438;53.174;6.730;2023-02-21T13:32:15;11.00;99.90
56542;DHT22;42438;53.174;6.730;2023-02-21T13:35:00;11.10;99.90
56542;DHT22;42438;53.174;6.730;2023-02-21T13:37:34;11.10;99.90
56542;DHT22;42438;53.174;6.730;2023-02-21T13:40:17;11.00;99.90
56542;DHT22;42438;53.174;6.730;2023-02-21T13:43:09;11.00;99.90
56542;DHT22;42438;53.174;6.730;2023-02-21T13:45:40;11.10;99.90
56542;DHT22;42438;53.174;6.730;2023-02-21T13:48:27;11.00;99.90
56542;DHT22;42438;53.174;6.730;2023-02-21T13:50:59;11.00;99.90
56542;DHT22;42438;53.174;6.730;2023-02-21T13:53:32;11.10;99.90
56542;DHT22;42438;53.174;6.730;2023-02-21T13:56:39;11.00;99.90
56542;DHT22;42438;53.174;6.730;2023-02-21T14:02:20;10.90;99.90
56542;DHT22;42438;53.174;6.730;2023-02-21T14:05:03;10.90;99.90
56542;DHT22;42438;53.174;6.730;2023-02-21T14:16:52;10.70;99.90
56542;DHT22;42438;53.174;6.730;2023-02-21T14:19:45;10.70;99.90
56542;DHT22;42438;53.174;6.730;2023-02-21T14:22:23;10.50;99.90
56542;DHT22;42438;53.174;6.730;2023-02-21T14:25:17;10.70;99.90
56542;DHT22;42438;53.174;6.730;2023-02-21T14:27:49;10.60;99.90
56542;DHT22;42438;53.174;6.730;2023-02-21T14:30:31;10.40;99.90
56542;DHT22;42438;53.174;6.730;2023-02-21T14:33:20;10.50;99.90
56542;DHT22;42438;53.174;6.730;2023-02-21T14:36:04;10.50;99.90
56542;DHT22;42438;53.174;6.730;2023-02-21T14:38:40;10.50;99.90
56542;DHT22;42438;53.174;6.730;2023-02-21T14:44:57;10.40;99.90
56542;DHT22;42438;53.174;6.730;2023-02-21T15:02:13;10.30;99.90
56542;DHT22;42438;53.174;6.730;2023-02-21T15:04:53;10.30;99.90
56542;DHT22;42438;53.174;6.730;2023-02-21T15:15:33;10.30;99.90
56542;DHT22;42438;53.174;6.730;2023-02-21T15:18:10;10.10;99.90
56542;DHT22;42438;53.174;6.730;2023-02-21T15:20:41;10.30;99.90
56542;DHT22;42438;53.174;6.730;2023-02-21T15:23:20;10.10;99.90
56542;DHT22;42438;53.174;6.730;2023-02-21T15:25:59;10.30;99.90
56542;DHT22;42438;53.174;6.730;2023-02-21T15:28:32;10.30;99.90
56542;DHT22;42438;53.174;6.730;2023-02-21T15:31:07;10.20;99.90
56542;DHT22;42438;53.174;6.730;2023-02-21T15:33:41;10.20;99.90
56542;DHT22;42438;53.174;6.730;2023-02-21T15:36:19;10.30;99.90
56542;DHT22;42438;53.174;6.730;2023-02-21T15:38:57;10.10;99.90
56542;DHT22;42438;53.174;6.730;2023-02-21T15:41:44;10.10;99.90
56542;DHT22;42438;53.174;6.730;2023-02-21T15:44:56;10.00;99.90
56542;DHT22;42438;53.174;6.730;2023-02-21T15:47:21;9.80;99.90
56542;DHT22;42438;53.174;6.730;2023-02-21T15:50:35;10.00;99.90
56542;DHT22;42438;53.174;6.730;2023-02-21T15:53:14;10.10;99.90
56542;DHT22;42438;53.174;6.730;2023-02-21T15:55:46;10.00;99.90
56542;DHT22;42438;53.174;6.730;2023-02-21T15:58:19;9.90;99.90
56542;DHT22;42438;53.174;6.730;2023-02-21T16:01:06;10.10;99.90
56542;DHT22;42438;53.174;6.730;2023-02-21T16:03:42;9.90;99.90
56542;DHT22;42438;53.174;6.730;2023-02-21T16:06:23;10.00;99.90
56542;DHT22;42438;53.174;6.730;2023-02-21T16:09:17;9.90;99.90
56542;DHT22;42438;53.174;6.730;2023-02-21T16:14:59;9.70;99.90
56542;DHT22;42438;53.174;6.730;2023-02-21T16:17:31;9.90;99.90
56542;DHT22;42438;53.174;6.730;2023-02-21T16:20:15;9.90;99.90
56542;DHT22;42438;53.174;6.730;2023-02-21T16:22:49;9.60;99.90
56542;DHT22;42438;53.174;6.730;2023-02-21T16:25:22;9.90;99.90
56542;DHT22;42438;53.174;6.730;2023-02-21T16:27:56;9.90;99.90
56542;DHT22;42438;53.174;6.730;2023-02-21T16:30:30;9.50;99.90
56542;DHT22;42438;53.174;6.730;2023-02-21T16:33:03;9.50;99.90
56542;DHT22;42438;53.174;6.730;2023-02-21T16:35:34;9.60;99.90
56542;DHT22;42438;53.174;6.730;2023-02-21T16:38:05;9.50;99.90
56542;DHT22;42438;53.174;6.730;2023-02-21T16:40:38;9.90;99.90
56542;DHT22;42438;53.174;6.730;2023-02-21T16:43:16;9.70;99.90
56542;DHT22;42438;53.174;6.730;2023-02-21T16:45:47;9.80;99.90
56542;DHT22;42438;53.174;6.730;2023-02-21T16:48:24;9.80;99.90
56542;DHT22;42438;53.174;6.730;2023-02-21T16:51:03;9.40;99.90
56542;DHT22;42438;53.174;6.730;2023-02-21T16:53:35;9.50;99.90
56542;DHT22;42438;53.174;6.730;2023-02-21T16:56:07;9.80;99.90
56542;DHT22;42438;53.174;6.730;2023-02-21T16:58:39;9.50;99.90
56542;DHT22;42438;53.174;6.730;2023-02-21T17:01:14;9.60;99.90
56542;DHT22;42438;53.174;6.730;2023-02-21T17:03:46;9.60;99.90
56542;DHT22;42438;53.174;6.730;2023-02-21T17:06:21;9.30;99.90
56542;DHT22;42438;53.174;6.730;2023-02-21T17:08:53;9.60;99.90
56542;DHT22;42438;53.174;6.730;2023-02-21T17:11:24;9.10;99.90
56542;DHT22;42438;53.174;6.730;2023-02-21T17:13:55;9.40;99.90
56542;DHT22;42438;53.174;6.730;2023-02-21T17:16:26;9.30;99.90
56542;DHT22;42438;53.174;6.730;2023-02-21T17:18:56;9.50;99.90
56542;DHT22;42438;53.174;6.730;2023-02-21T17:21:27;9.40;99.90
56542;DHT22;42438;53.174;6.730;2023-02-21T17:23:57;9.10;99.90
56542;DHT22;42438;53.174;6.730;2023-02-21T17:26:28;9.30;99.90
56542;DHT22;42438;53.174;6.730;2023-02-21T17:28:59;9.50;99.90
56542;DHT22;42438;53.174;6.730;2023-02-21T17:31:30;9.30;99.90
56542;DHT22;42438;53.174;6.730;2023-02-21T17:34:01;9.20;99.90
56542;DHT22;42438;53.174;6.730;2023-02-21T17:36:32;9.20;99.90
56542;DHT22;42438;53.174;6.730;2023-02-21T17:39:03;9.60;99.90
56542;DHT22;42438;53.174;6.730;2023-02-21T17:41:33;9.20;99.90
56542;DHT22;42438;53.174;6.730;2023-02-21T17:44:04;9.30;99.90
56542;DHT22;42438;53.174;6.730;2023-02-21T17:46:35;8.90;99.90
56542;DHT22;42438;53.174;6.730;2023-02-21T17:49:05;9.30;99.90
56542;DHT22;42438;53.174;6.730;2023-02-21T17:51:36;8.90;99.90
56542;DHT22;42438;53.174;6.730;2023-02-21T17:54:06;8.90;99.90
56542;DHT22;42438;53.174;6.730;2023-02-21T17:56:37;9.50;99.90
56542;DHT22;42438;53.174;6.730;2023-02-21T17:59:08;8.90;99.90
56542;DHT22;42438;53.174;6.730;2023-02-21T18:01:39;9.30;99.90
56542;DHT22;42438;53.174;6.730;2023-02-21T18:04:13;9.30;99.90
56542;DHT22;42438;53.174;6.730;2023-02-21T18:06:43;9.30;99.90
56542;DHT22;42438;53.174;6.730;2023-02-21T18:09:14;9.20;99.90
56542;DHT22;42438;53.174;6.730;2023-02-21T18:11:52;8.90;99.90
56542;DHT22;42438;53.174;6.730;2023-02-21T18:14:24;9.00;99.90
56542;DHT22;42438;53.174;6.730;2023-02-21T18:16:55;9.40;99.90
56542;DHT22;42438;53.174;6.730;2023-02-21T18:19:26;9.00;99.90
56542;DHT22;42438;53.174;6.730;2023-02-21T18:21:58;9.30;99.90
56542;DHT22;42438;53.174;6.730;2023-02-21T18:24:34;9.30;99.90
56542;DHT22;42438;53.174;6.730;2023-02-21T18:27:05;9.20;99.90
56542;DHT22;42438;53.174;6.730;2023-02-21T18:29:36;8.90;99.90
56542;DHT22;42438;53.174;6.730;2023-02-21T18:32:07;8.90;99.90
56542;DHT22;42438;53.174;6.730;2023-02-21T18:34:37;9.30;99.90
56542;DHT22;42438;53.174;6.730;2023-02-21T18:37:08;9.00;99.90
56542;DHT22;42438;53.174;6.730;2023-02-21T18:39:39;9.30;99.90
56542;DHT22;42438;53.174;6.730;2023-02-21T18:42:10;8.70;99.90
56542;DHT22;42438;53.174;6.730;2023-02-21T18:44:40;8.80;99.90
56542;DHT22;42438;53.174;6.730;2023-02-21T18:47:11;9.20;99.90
56542;DHT22;42438;53.174;6.730;2023-02-21T18:49:46;9.00;99.90
56542;DHT22;42438;53.174;6.730;2023-02-21T18:52:17;9.10;99.90
56542;DHT22;42438;53.174;6.730;2023-02-21T18:54:49;8.80;99.90
56542;DHT22;42438;53.174;6.730;2023-02-21T18:57:21;8.60;99.90
56542;DHT22;42438;53.174;6.730;2023-02-21T18:59:51;9.00;99.90
56542;DHT22;42438;53.174;6.730;2023-02-21T19:02:22;9.00;99.90
56542;DHT22;42438;53.174;6.730;2023-02-21T19:04:54;9.00;99.90
56542;DHT22;42438;53.174;6.730;2023-02-21T19:07:25;9.10;99.90
56542;DHT22;42438;53.174;6.730;2023-02-21T19:09:55;8.90;99.90
56542;DHT22;42438;53.174;6.730;2023-02-21T19:12:26;8.80;99.90
56542;DHT22;42438;53.174;6.730;2023-02-21T19:14:57;9.20;99.90
56542;DHT22;42438;53.174;6.730;2023-02-21T19:17:28;9.20;99.90
56542;DHT22;42438;53.174;6.730;2023-02-21T19:19:58;8.80;99.90
56542;DHT22;42438;53.174;6.730;2023-02-21T19:22:29;8.60;99.90
56542;DHT22;42438;53.174;6.730;2023-02-21T19:25:00;8.80;99.90
56542;DHT22;42438;53.174;6.730;2023-02-21T19:27:31;8.80;99.90